Time;durP1;ratioP1;P1;durP2;ratioP2;P2;SDS_P1;SDS_P2;PMS_P1;PMS_P2;Temp;Humidity;BMP_temperature;BMP_pressure;BME280_temperature;BME280_humidity;BME280_pressure;Samples;Min_cycle;Max_cycle;Signal;HPM_P1;HPM_P2
2022/09/30 00:01:13;;;;;;;2.67;1.42;;;;;;;24.63;41.58;102518.88;4198977;28;20106;-61
2022/09/30 00:03:14;;;;;;;3.85;1.40;;;;;;;24.63;41.71;102526.41;4198138;28;20037;-61
2022/09/30 00:05:16;;;;;;;2.42;1.58;;;;;;;24.64;41.62;102537.34;4198787;28;20036;-61
2022/09/30 00:07:17;;;;;;;4.55;1.98;;;;;;;24.61;41.94;102532.31;4198255;28;20093;-61
2022/09/30 00:09:20;;;;;;;4.65;1.88;;;;;;;24.65;41.73;102535.38;4198504;28;20036;-61
2022/09/30 00:11:30;;;;;;;3.53;1.48;;;;;;;24.63;41.86;102535.66;4198253;28;20417;-61
2022/09/30 00:13:33;;;;;;;2.78;1.40;;;;;;;24.64;41.47;102531.75;4198848;28;20025;-61
2022/09/30 00:15:34;;;;;;;1.60;1.30;;;;;;;24.64;41.96;102540.13;4198321;28;20044;-61
2022/09/30 00:17:36;;;;;;;1.88;1.50;;;;;;;24.53;41.81;102518.78;4198290;28;20045;-61
2022/09/30 00:19:37;;;;;;;1.52;1.27;;;;;;;24.58;41.92;102533.66;4198327;28;20044;-61
2022/09/30 00:21:38;;;;;;;4.82;1.35;;;;;;;24.59;41.99;102540.09;4195014;28;20036;-62
2022/09/30 00:23:40;;;;;;;3.53;1.15;;;;;;;24.65;41.61;102539.06;4198213;28;20094;-61
2022/09/30 00:25:44;;;;;;;2.85;1.10;;;;;;;24.65;41.83;102544.66;4198511;28;20040;-62
2022/09/30 00:27:45;;;;;;;2.15;1.23;;;;;;;24.45;41.77;102519.28;4198657;28;20418;-61
2022/09/30 00:29:46;;;;;;;1.98;1.25;;;;;;;24.65;41.50;102552.19;4198583;28;20463;-62
2022/09/30 00:31:48;;;;;;;4.20;1.13;;;;;;;24.64;41.59;102548.53;4198419;28;20363;-62
2022/09/30 00:34:05;;;;;;;4.32;1.30;;;;;;;24.61;41.80;102548.25;4198585;28;20086;-62
2022/09/30 00:36:07;;;;;;;1.70;1.20;;;;;;;24.67;41.58;102552.78;4197178;28;20462;-62
2022/09/30 00:38:08;;;;;;;1.88;1.10;;;;;;;24.66;41.46;102546.34;4198008;28;20045;-62
2022/09/30 00:40:12;;;;;;;1.75;1.30;;;;;;;24.62;41.59;102544.34;4197851;28;20105;-62
2022/09/30 00:42:18;;;;;;;1.07;0.97;;;;;;;24.43;41.75;102519.56;4198168;28;20032;-62
2022/09/30 00:44:46;;;;;;;2.17;1.05;;;;;;;24.62;41.57;102549.94;4198178;28;20261;-61
2022/09/30 00:46:48;;;;;;;1.35;1.20;;;;;;;24.60;41.95;102544.59;4197812;28;20036;-62
2022/09/30 00:48:53;;;;;;;1.80;1.35;;;;;;;24.58;41.58;102555.22;4197884;28;20173;-62
2022/09/30 00:51:00;;;;;;;3.38;1.85;;;;;;;24.64;41.80;102559.72;4198281;28;20024;-62
2022/09/30 00:53:11;;;;;;;2.92;1.10;;;;;;;24.60;41.84;102558.56;4197465;28;20193;-62
2022/09/30 00:55:42;;;;;;;1.23;1.00;;;;;;;24.35;41.66;102523.66;4197465;28;20081;-62
2022/09/30 00:57:43;;;;;;;1.27;1.10;;;;;;;24.66;41.77;102574.31;4156425;28;20052;-62
2022/09/30 00:59:50;;;;;;;1.88;1.20;;;;;;;24.57;41.67;102564.72;4197454;28;20044;-62
2022/09/30 01:01:56;;;;;;;3.78;1.30;;;;;;;24.63;41.80;102569.25;4197390;28;20040;-62
2022/09/30 01:04:19;;;;;;;2.55;1.10;;;;;;;24.65;41.68;102578.25;4198005;28;20040;-62
2022/09/30 01:06:23;;;;;;;3.75;1.30;;;;;;;24.67;41.75;102576.00;4181651;28;20052;-62
2022/09/30 01:08:29;;;;;;;1.83;1.42;;;;;;;24.59;41.71;102568.09;4180743;28;20095;-61
2022/09/30 01:10:30;;;;;;;2.78;1.20;;;;;;;24.65;41.27;102578.25;4181046;28;20041;-62
2022/09/30 01:12:33;;;;;;;1.48;1.30;;;;;;;24.65;41.85;102578.25;4180551;28;20036;-62
2022/09/30 01:14:36;;;;;;;1.75;1.15;;;;;;;24.62;41.57;102567.56;4179655;28;20484;-62
2022/09/30 01:17:15;;;;;;;2.42;1.10;;;;;;;24.63;41.58;102574.00;4181067;28;20040;-62
2022/09/30 01:19:26;;;;;;;2.85;1.00;;;;;;;24.66;41.38;102576.28;4181133;28;20090;-62
2022/09/30 01:22:04;;;;;;;1.70;1.25;;;;;;;24.63;41.78;102580.44;4181104;28;20037;-62
2022/09/30 01:24:36;;;;;;;3.30;0.93;;;;;;;24.64;41.80;102579.31;4181084;28;20040;-62
2022/09/30 01:27:11;;;;;;;1.52;1.20;;;;;;;24.65;41.47;102578.25;4180950;28;20041;-62
2022/09/30 01:29:33;;;;;;;1.67;1.20;;;;;;;24.66;41.55;102574.31;4180364;28;20048;-62
2022/09/30 01:32:17;;;;;;;2.03;1.25;;;;;;;24.62;41.68;102575.13;4180754;28;20098;-62
2022/09/30 01:34:41;;;;;;;1.33;1.00;;;;;;;24.64;41.50;102570.94;4181169;28;20045;-62
2022/09/30 01:37:00;;;;;;;1.50;1.23;;;;;;;24.64;41.67;102570.94;4184265;28;20538;-62
2022/09/30 01:39:33;;;;;;;1.25;0.90;;;;;;;24.63;41.51;102568.41;4180701;28;20036;-61
2022/09/30 01:41:51;;;;;;;1.23;1.00;;;;;;;24.67;41.36;102576.00;4178182;28;20455;-61
2022/09/30 01:44:03;;;;;;;1.55;1.20;;;;;;;24.65;41.53;102578.25;4186640;28;20060;-62
2022/09/30 01:46:14;;;;;;;1.17;0.98;;;;;;;24.61;41.49;102573.44;4187624;28;20044;-61
2022/09/30 01:48:41;;;;;;;1.50;1.00;;;;;;;24.51;41.47;102548.97;4189762;28;20109;-62
2022/09/30 01:50:58;;;;;;;1.48;1.00;;;;;;;24.64;41.71;102581.28;4179390;28;20056;-61
2022/09/30 01:53:14;;;;;;;1.73;1.27;;;;;;;24.65;41.70;102583.84;4186771;28;20041;-61
2022/09/30 01:55:32;;;;;;;1.13;0.90;;;;;;;24.62;41.50;102581.56;4183842;28;20488;-61
2022/09/30 01:57:52;;;;;;;1.40;1.05;;;;;;;24.64;41.48;102584.09;4186695;28;20094;-61
2022/09/30 02:00:08;;;;;;;2.95;1.10;;;;;;;24.41;41.68;102551.69;4197917;28;20102;-61
2022/09/30 02:02:24;;;;;;;1.20;1.10;;;;;;;24.64;41.62;102586.88;4194297;28;20044;-62
2022/09/30 02:04:37;;;;;;;1.10;0.98;;;;;;;24.63;41.71;102586.03;4190437;28;20036;-61
2022/09/30 02:06:45;;;;;;;1.35;1.20;;;;;;;24.65;41.67;102591.38;4195856;28;20044;-62
2022/09/30 02:08:56;;;;;;;1.20;0.98;;;;;;;24.64;41.78;102587.72;4195315;28;20334;-62
2022/09/30 02:11:03;;;;;;;2.10;1.13;;;;;;;24.64;41.77;102584.94;4186780;28;20439;-61
2022/09/30 02:13:20;;;;;;;1.13;1.00;;;;;;;24.62;41.82;102584.38;4186837;28;20095;-62
2022/09/30 02:15:27;;;;;;;1.70;1.20;;;;;;;24.64;41.81;102584.94;4190805;28;20041;-61
2022/09/30 02:17:42;;;;;;;0.98;0.98;;;;;;;24.64;41.65;102587.72;4191755;28;20053;-62
2022/09/30 02:19:57;;;;;;;1.40;1.10;;;;;;;24.46;41.53;102568.53;4195218;28;20065;-61
2022/09/30 02:22:05;;;;;;;;;;;;;;;24.64;41.69;102598.91;4192692;28;20386;-62
2022/09/30 02:24:11;;;;;;;2.15;1.10;;;;;;;24.70;41.51;102595.06;4193370;28;19920;-61
2022/09/30 02:26:32;;;;;;;1.77;1.20;;;;;;;24.67;41.41;102595.59;4184295;28;20033;-62
2022/09/30 02:28:41;;;;;;;1.58;0.90;;;;;;;24.63;41.79;102591.63;4190264;28;20129;-61
2022/09/30 02:30:47;;;;;;;0.93;0.88;;;;;;;24.69;41.41;102595.31;4189053;28;20542;-61
2022/09/30 02:32:54;;;;;;;1.65;0.80;;;;;;;24.61;41.31;102585.47;4183459;28;20044;-61
2022/09/30 02:35:06;;;;;;;1.67;1.08;;;;;;;24.65;41.66;102589.44;4191056;28;20078;-61
2022/09/30 02:37:19;;;;;;;1.50;0.90;;;;;;;24.62;41.43;102586.31;4186990;28;20044;-62
2022/09/30 02:39:26;;;;;;;2.08;1.00;;;;;;;24.66;41.85;102585.53;4187323;28;20579;-61
2022/09/30 02:41:37;;;;;;;0.80;0.80;;;;;;;24.64;41.80;102593.31;4194656;28;20415;-61
2022/09/30 02:43:40;;;;;;;1.27;1.00;;;;;;;24.66;41.65;102590.28;4199901;28;20090;-61
2022/09/30 02:46:00;;;;;;;1.40;1.10;;;;;;;24.64;42.04;102598.06;4184472;28;20052;-61
2022/09/30 02:48:22;;;;;;;1.67;1.10;;;;;;;24.63;42.11;102597.25;4183160;28;20045;-61
2022/09/30 02:50:46;;;;;;;1.73;1.27;;;;;;;24.62;41.72;102601.16;4191424;28;20440;-61
2022/09/30 02:53:02;;;;;;;1.27;1.00;;;;;;;24.64;41.87;102604.50;4191555;28;20048;-62
2022/09/30 02:55:16;;;;;;;1.55;1.13;;;;;;;24.64;41.86;102598.91;4183485;28;20102;-62
2022/09/30 02:57:26;;;;;;;1.20;1.10;;;;;;;24.66;41.86;102595.88;4189136;28;20044;-61
2022/09/30 02:59:27;;;;;;;1.27;0.77;;;;;;;24.66;42.04;102590.28;4183586;28;20362;-62
2022/09/30 03:01:30;;;;;;;1.10;0.98;;;;;;;24.61;41.81;102588.28;4183928;28;20059;-62
2022/09/30 03:03:54;;;;;;;1.10;1.00;;;;;;;24.60;42.05;102589.38;4197450;28;20472;-61
2022/09/30 03:05:56;;;;;;;1.10;0.88;;;;;;;24.52;42.09;102573.09;4194480;28;20036;-62
2022/09/30 03:07:57;;;;;;;1.27;1.17;;;;;;;24.61;42.17;102579.88;4205463;28;20467;-61
2022/09/30 03:09:58;;;;;;;5.18;2.10;;;;;;;24.64;41.92;102584.94;4182952;28;20415;-61
2022/09/30 03:12:23;;;;;;;1.52;1.10;;;;;;;24.63;42.03;102580.44;4196419;28;20036;-62
2022/09/30 03:14:55;;;;;;;2.78;1.08;;;;;;;24.58;42.09;102584.03;4192414;28;20098;-62
2022/09/30 03:17:25;;;;;;;1.63;0.95;;;;;;;24.66;41.83;102585.53;4197315;28;20048;-62
2022/09/30 03:19:41;;;;;;;2.42;1.10;;;;;;;24.65;42.07;102589.44;4192485;28;20098;-61
2022/09/30 03:22:00;;;;;;;1.05;0.85;;;;;;;24.65;41.87;102589.44;4193056;28;20103;-62
2022/09/30 03:24:20;;;;;;;1.08;0.80;;;;;;;24.67;42.09;102587.19;4193992;28;20517;-61
2022/09/30 03:26:42;;;;;;;2.00;1.45;;;;;;;24.54;42.13;102582.03;4183967;28;20045;-61
2022/09/30 03:29:24;;;;;;;2.97;0.77;;;;;;;24.64;42.36;102587.72;4187075;28;20109;-62
2022/09/30 03:31:44;;;;;;;1.27;1.10;;;;;;;24.50;42.07;102564.94;4199556;28;20028;-62
2022/09/30 03:33:54;;;;;;;1.75;0.93;;;;;;;24.64;42.23;102593.31;4213187;28;20097;-62
2022/09/30 03:36:06;;;;;;;5.68;1.50;;;;;;;24.61;41.95;102582.69;4199016;28;20066;-62
2022/09/30 03:38:29;;;;;;;3.15;0.88;;;;;;;24.49;42.09;102568.00;4199321;28;20087;-62
2022/09/30 03:40:42;;;;;;;1.08;0.93;;;;;;;24.64;41.95;102587.72;4193140;28;20029;-61
2022/09/30 03:42:52;;;;;;;1.77;1.00;;;;;;;24.62;42.00;102573.16;4182282;28;20102;-61
2022/09/30 03:45:06;;;;;;;2.28;1.00;;;;;;;24.62;42.21;102581.56;4182487;28;20033;-61
2022/09/30 03:47:16;;;;;;;1.25;0.73;;;;;;;24.63;42.21;102586.03;4191004;28;20087;-61
2022/09/30 03:49:29;;;;;;;1.45;0.88;;;;;;;24.63;42.10;102585.19;4184693;28;20087;-61
2022/09/30 03:51:34;;;;;;;0.80;0.80;;;;;;;24.52;41.94;102561.88;4215333;28;20040;-61
2022/09/30 03:53:54;;;;;;;2.92;0.88;;;;;;;24.52;42.14;102565.53;4209252;28;20086;-61
2022/09/30 03:56:01;;;;;;;3.45;1.00;;;;;;;24.65;42.06;102567.03;4198643;28;20123;-61
2022/09/30 03:58:02;;;;;;;2.90;1.00;;;;;;;24.65;41.88;102582.97;4198698;28;20041;-61
2022/09/30 04:00:05;;;;;;;2.50;0.88;;;;;;;24.61;42.24;102574.28;4198851;28;20060;-61
2022/09/30 04:02:09;;;;;;;1.40;1.00;;;;;;;24.63;41.99;102574.84;4192833;28;20109;-61
2022/09/30 04:04:12;;;;;;;1.38;0.77;;;;;;;24.65;41.91;102575.44;4198057;28;20098;-61
2022/09/30 04:06:14;;;;;;;2.90;1.20;;;;;;;24.65;41.95;102572.66;4198786;28;20048;-61
2022/09/30 04:08:18;;;;;;;3.53;1.00;;;;;;;24.65;41.87;102571.78;4198872;28;20037;-61
2022/09/30 04:10:20;;;;;;;2.70;0.98;;;;;;;24.59;41.94;102568.09;4198651;28;20094;-61
2022/09/30 04:12:21;;;;;;;2.58;1.20;;;;;;;24.67;41.90;102570.41;4209062;28;20044;-60
2022/09/30 04:14:23;;;;;;;6.60;1.75;;;;;;;24.70;41.94;102575.47;4201391;28;20044;-62
2022/09/30 04:16:24;;;;;;;19.92;15.73;;;;;;;24.70;41.69;102572.69;4195013;28;20040;-61
2022/09/30 04:18:25;;;;;;;28.70;17.13;;;;;;;24.70;41.69;102564.28;4181923;28;20489;-62
2022/09/30 04:20:33;;;;;;;24.73;15.02;;;;;;;24.70;41.05;102569.03;4185116;28;20033;-61
2022/09/30 04:22:34;;;;;;;15.20;11.30;;;;;;;24.68;41.26;102571.25;4197783;28;20033;-61
2022/09/30 04:24:36;;;;;;;13.38;8.80;;;;;;;24.58;41.40;102561.66;4196784;28;20095;-61
2022/09/30 04:26:37;;;;;;;12.65;8.15;;;;;;;24.67;40.98;102570.41;4196410;28;20040;-61
2022/09/30 04:28:38;;;;;;;11.82;8.07;;;;;;;24.67;40.98;102576.00;4197232;28;20098;-61
2022/09/30 04:30:40;;;;;;;8.63;5.97;;;;;;;24.67;41.13;102573.19;4198080;28;20086;-61
2022/09/30 04:32:44;;;;;;;7.35;5.35;;;;;;;24.64;40.99;102576.53;4186321;28;20071;-61
2022/09/30 04:34:45;;;;;;;9.48;6.40;;;;;;;24.67;41.05;102577.97;4189659;28;20114;-61
2022/09/30 04:36:52;;;;;;;7.15;4.80;;;;;;;24.66;40.95;102574.31;4185689;28;20051;-62
2022/09/30 04:38:53;;;;;;;7.85;4.85;;;;;;;24.65;40.93;102572.66;4187211;28;20420;-61
2022/09/30 04:41:00;;;;;;;5.65;4.10;;;;;;;24.66;40.99;102573.47;4181427;28;20455;-62
2022/09/30 04:43:01;;;;;;;7.00;4.32;;;;;;;24.58;40.70;102570.06;4181254;28;20094;-62
2022/09/30 04:45:03;;;;;;;5.90;3.50;;;;;;;24.63;40.67;102586.03;4181682;28;20094;-62
2022/09/30 04:47:05;;;;;;;6.47;3.55;;;;;;;24.61;40.65;102568.69;4181684;28;20086;-62
2022/09/30 04:49:07;;;;;;;4.80;3.22;;;;;;;24.61;40.73;102563.09;4180734;28;20546;-61
2022/09/30 04:51:08;;;;;;;4.15;3.20;;;;;;;24.48;40.86;102543.94;4183550;28;20099;-62
2022/09/30 04:53:13;;;;;;;4.00;2.72;;;;;;;24.58;40.49;102566.41;4197790;28;20484;-62
2022/09/30 04:55:14;;;;;;;;;;;;;;;24.59;40.64;102571.72;4195099;28;20045;-61
2022/09/30 04:57:16;;;;;;;5.38;2.72;;;;;;;24.64;40.27;102576.53;4198072;28;20006;-61
2022/09/30 04:59:18;;;;;;;4.75;2.30;;;;;;;24.63;40.25;102558.06;4197433;28;20044;-61
2022/09/30 05:01:22;;;;;;;4.78;2.38;;;;;;;24.58;39.92;102564.44;4197482;28;20113;-62
2022/09/30 05:03:23;;;;;;;3.97;2.17;;;;;;;24.57;40.09;102564.72;4197364;28;20453;-61
2022/09/30 05:05:24;;;;;;;3.13;1.95;;;;;;;24.54;40.26;102562.44;4195735;28;20434;-61
2022/09/30 05:07:25;;;;;;;5.15;2.50;;;;;;;24.54;40.39;102554.06;4199759;28;20036;-62
2022/09/30 05:09:27;;;;;;;3.10;2.00;;;;;;;24.38;40.03;102535.47;4214220;28;20040;-61
2022/09/30 05:11:31;;;;;;;2.20;1.90;;;;;;;24.52;40.06;102550.69;4214322;28;20044;-61
2022/09/30 05:13:34;;;;;;;1.90;1.60;;;;;;;24.52;39.96;102559.94;4183102;28;20099;-63
2022/09/30 05:15:35;;;;;;;2.45;1.98;;;;;;;24.51;40.23;102543.38;4181099;28;20090;-62
2022/09/30 05:17:36;;;;;;;2.97;1.77;;;;;;;24.47;40.17;102539.47;4181211;28;20033;-62
2022/09/30 05:19:40;;;;;;;4.28;1.98;;;;;;;24.50;40.16;102539.75;4181194;28;20040;-62
2022/09/30 05:21:43;;;;;;;1.70;1.60;;;;;;;24.48;39.74;102539.19;4180570;28;20083;-62
2022/09/30 05:23:48;;;;;;;2.15;1.70;;;;;;;24.30;39.70;102512.41;4180851;28;20542;-62
2022/09/30 05:25:50;;;;;;;2.35;1.52;;;;;;;24.44;39.67;102542.78;4219254;28;20575;-62
2022/09/30 05:27:52;;;;;;;2.38;1.40;;;;;;;24.45;39.72;102544.47;4201483;28;20033;-61
2022/09/30 05:29:53;;;;;;;2.67;1.70;;;;;;;24.45;40.00;102542.50;4187539;28;20103;-61
2022/09/30 05:31:54;;;;;;;2.53;1.80;;;;;;;24.45;40.04;102533.28;4179630;28;20041;-61
2022/09/30 05:33:55;;;;;;;2.42;1.90;;;;;;;24.44;39.95;102539.97;4180756;28;20443;-61
2022/09/30 05:36:02;;;;;;;2.00;1.70;;;;;;;24.43;39.73;102532.72;4181085;28;20063;-61
2022/09/30 05:38:06;;;;;;;1.90;1.55;;;;;;;24.42;39.97;102539.41;4180702;28;20471;-62
2022/09/30 05:40:08;;;;;;;2.67;1.90;;;;;;;24.42;40.07;102528.19;4181019;28;20041;-61
2022/09/30 05:42:10;;;;;;;2.22;1.70;;;;;;;24.41;40.12;102532.13;4180834;28;20044;-61
2022/09/30 05:44:11;;;;;;;2.33;1.73;;;;;;;24.34;40.06;102521.97;4184659;28;20032;-61
2022/09/30 05:46:14;;;;;;;2.50;1.45;;;;;;;24.41;39.74;102532.13;4192833;28;20041;-61
2022/09/30 05:48:15;;;;;;;1.52;1.20;;;;;;;24.41;39.56;102532.13;4180661;28;20111;-62
2022/09/30 05:50:17;;;;;;;3.53;1.58;;;;;;;24.39;40.02;102523.16;4180485;28;20550;-61
2022/09/30 05:52:18;;;;;;;1.63;1.42;;;;;;;24.39;39.76;102523.16;4180302;28;20433;-61
2022/09/30 05:54:22;;;;;;;1.83;1.42;;;;;;;24.33;39.57;102525.03;4179447;28;20095;-61
2022/09/30 05:56:26;;;;;;;2.10;1.30;;;;;;;24.39;39.95;102528.75;4185188;28;20032;-61
2022/09/30 05:58:28;;;;;;;1.85;1.38;;;;;;;24.32;39.71;102521.38;4180754;28;20496;-61
2022/09/30 06:00:29;;;;;;;1.55;1.33;;;;;;;24.38;39.95;102532.66;4180839;28;20052;-61
2022/09/30 06:02:31;;;;;;;1.98;1.58;;;;;;;23.71;40.03;102434.13;4180575;28;20103;-61
2022/09/30 06:04:35;;;;;;;2.45;1.00;;;;;;;24.35;39.54;102537.63;4181368;28;20094;-61
2022/09/30 06:06:37;;;;;;;1.27;1.17;;;;;;;24.33;39.70;102539.88;4180545;28;20041;-60
2022/09/30 06:08:39;;;;;;;4.30;1.60;;;;;;;24.37;39.85;102536.56;4180463;28;20091;-60
2022/09/30 06:10:42;;;;;;;1.73;1.33;;;;;;;24.38;40.02;102532.66;4180518;28;20053;-60
2022/09/30 06:12:43;;;;;;;2.30;1.40;;;;;;;24.39;39.90;102531.56;4183167;28;20045;-60
2022/09/30 06:14:45;;;;;;;2.17;1.40;;;;;;;24.37;39.66;102525.34;4180110;28;20045;-60
2022/09/30 06:16:47;;;;;;;1.40;1.10;;;;;;;24.37;39.80;102525.34;4180148;28;20114;-60
2022/09/30 06:18:48;;;;;;;1.23;1.13;;;;;;;24.35;39.85;102529.25;4180668;28;20435;-61
2022/09/30 06:20:57;;;;;;;2.90;1.30;;;;;;;24.11;39.69;102494.34;4181539;28;20041;-60
2022/09/30 06:22:59;;;;;;;2.08;1.50;;;;;;;24.32;40.09;102524.16;4177233;28;20091;-60
2022/09/30 06:25:03;;;;;;;1.42;1.05;;;;;;;24.35;39.71;102536.78;4179906;28;20114;-61
2022/09/30 06:27:07;;;;;;;2.13;1.00;;;;;;;24.34;39.74;102535.13;4180703;28;20036;-60
2022/09/30 06:29:09;;;;;;;1.50;1.30;;;;;;;24.32;39.70;102534.53;4180111;28;20094;-61
2022/09/30 06:31:11;;;;;;;1.48;1.25;;;;;;;24.32;39.80;102528.91;4180583;28;20041;-60
2022/09/30 06:33:13;;;;;;;2.97;1.60;;;;;;;24.30;39.73;102518.00;4179828;28;20037;-61
2022/09/30 06:35:15;;;;;;;2.65;1.25;;;;;;;24.31;40.10;102519.69;4180504;28;20037;-60
2022/09/30 06:37:17;;;;;;;2.60;1.17;;;;;;;24.31;39.87;102516.91;4180989;28;20107;-61
2022/09/30 06:39:19;;;;;;;3.17;1.27;;;;;;;24.31;39.97;102514.09;4180165;28;20049;-61
2022/09/30 06:41:24;;;;;;;1.40;1.13;;;;;;;24.31;39.95;102516.91;4180124;28;20045;-61
2022/09/30 06:43:25;;;;;;;;;;;;;;;24.31;39.95;102510.47;4182447;28;20037;-60
2022/09/30 06:45:31;;;;;;;1.30;0.80;;;;;;;24.38;39.82;102513.09;4198030;28;19951;-61
2022/09/30 06:47:33;;;;;;;3.25;1.40;;;;;;;24.33;39.55;102506.28;4200114;28;20113;-61
2022/09/30 06:49:34;;;;;;;2.67;1.10;;;;;;;24.34;39.71;102509.94;4199932;28;20052;-61
2022/09/30 06:51:36;;;;;;;1.30;1.20;;;;;;;24.31;39.57;102511.28;4199758;28;20032;-61
2022/09/30 06:53:38;;;;;;;1.90;1.10;;;;;;;24.26;39.71;102502.88;4194171;28;20097;-60
2022/09/30 06:55:40;;;;;;;1.67;1.10;;;;;;;24.28;39.43;102500.66;4182389;28;20462;-60
2022/09/30 06:57:46;;;;;;;1.00;0.90;;;;;;;23.96;40.01;102443.84;4193023;28;20045;-60
2022/09/30 06:59:49;;;;;;;1.25;0.98;;;;;;;24.27;39.68;102493.34;4197343;28;20070;-60
2022/09/30 07:01:55;;;;;;;1.85;0.82;;;;;;;24.23;39.96;102489.41;4191720;28;20133;-61
2022/09/30 07:03:57;;;;;;;1.45;1.10;;;;;;;24.25;39.62;102484.41;4187827;28;20122;-61
2022/09/30 07:06:00;;;;;;;0.95;0.95;;;;;;;24.27;39.63;102486.91;4195449;28;20095;-61
2022/09/30 07:08:02;;;;;;;1.08;0.90;;;;;;;24.25;39.35;102495.59;4188893;28;20149;-60
2022/09/30 07:10:03;;;;;;;1.27;0.90;;;;;;;24.24;39.66;102488.31;4194030;28;20044;-60
2022/09/30 07:12:11;;;;;;;1.25;1.10;;;;;;;24.24;39.73;102493.06;4187462;28;20098;-60
2022/09/30 07:14:12;;;;;;;3.38;0.98;;;;;;;24.20;39.46;102492.75;4184552;28;20534;-60
2022/09/30 07:16:18;;;;;;;1.48;0.85;;;;;;;24.24;39.37;102485.53;4190654;28;20094;-60
2022/09/30 07:18:20;;;;;;;1.70;1.15;;;;;;;24.19;39.40;102477.09;4194633;28;20749;-60
2022/09/30 07:20:22;;;;;;;1.17;1.08;;;;;;;24.21;39.39;102483.25;4183271;28;20095;-60
2022/09/30 07:22:30;;;;;;;1.88;1.15;;;;;;;24.19;39.20;102479.88;4185345;28;20041;-60
2022/09/30 07:24:34;;;;;;;1.95;0.98;;;;;;;23.91;39.28;102441.84;4185154;28;20045;-60
2022/09/30 07:26:35;;;;;;;1.10;1.00;;;;;;;24.15;39.20;102486.28;4191277;28;20557;-61
2022/09/30 07:28:38;;;;;;;2.17;0.93;;;;;;;24.06;38.82;102469.97;4197735;28;20041;-60
2022/09/30 07:30:44;;;;;;;1.00;0.90;;;;;;;24.13;39.07;102480.94;4187530;28;20098;-60
2022/09/30 07:32:48;;;;;;;1.85;0.88;;;;;;;24.09;39.44;102476.97;4198795;28;20040;-60
2022/09/30 07:34:52;;;;;;;1.83;0.90;;;;;;;24.11;39.22;102471.97;4182821;28;20029;-62
2022/09/30 07:36:53;;;;;;;0.90;0.70;;;;;;;24.11;39.11;102471.13;4193809;28;20106;-60
2022/09/30 07:38:55;;;;;;;1.73;1.05;;;;;;;23.98;38.78;102444.44;4182731;28;20040;-63
2022/09/30 07:41:05;;;;;;;1.20;0.90;;;;;;;24.11;39.51;102462.75;4192525;28;20569;-60
2022/09/30 07:43:07;;;;;;;1.48;0.85;;;;;;;24.11;39.31;102463.59;4198860;28;20094;-60
2022/09/30 07:45:15;;;;;;;1.65;0.80;;;;;;;24.09;38.47;102465.78;4197363;28;20040;-60
2022/09/30 07:47:17;;;;;;;0.98;0.88;;;;;;;23.88;39.28;102422.84;4198686;28;20036;-60
2022/09/30 07:49:24;;;;;;;1.83;0.85;;;;;;;23.92;38.97;102437.13;4186639;28;20041;-60
2022/09/30 07:51:26;;;;;;;1.42;0.75;;;;;;;24.08;39.23;102464.09;4198327;28;20025;-60
2022/09/30 07:53:27;;;;;;;1.02;0.80;;;;;;;23.77;38.84;102410.69;4198686;28;20040;-60
2022/09/30 07:55:28;;;;;;;1.98;0.90;;;;;;;24.05;38.70;102467.41;4196538;28;20044;-60
2022/09/30 07:57:29;;;;;;;1.13;1.00;;;;;;;24.03;38.90;102453.72;4188099;28;20062;-60
2022/09/30 07:59:33;;;;;;;1.17;0.80;;;;;;;23.81;38.57;102417.44;4195215;28;20083;-60
2022/09/30 08:01:34;;;;;;;1.58;0.73;;;;;;;23.83;39.17;102420.84;4187462;28;20102;-60
2022/09/30 08:03:38;;;;;;;0.80;0.80;;;;;;;24.01;38.76;102466.28;4194085;28;20209;-60
2022/09/30 08:05:43;;;;;;;3.38;0.77;;;;;;;24.03;39.20;102469.66;4185312;28;20041;-60
2022/09/30 08:07:44;;;;;;;;;;;;;;;24.01;39.02;102460.69;4194363;28;20380;-60
2022/09/30 08:09:45;;;;;;;1.10;1.00;;;;;;;24.09;39.01;102457.41;4185156;28;19917;-62
2022/09/30 08:11:50;;;;;;;0.88;0.80;;;;;;;24.07;39.01;102473.59;4181604;28;20098;-61
2022/09/30 08:14:04;;;;;;;0.75;0.70;;;;;;;24.04;39.29;102460.16;4184438;28;20121;-61
2022/09/30 08:16:06;;;;;;;1.42;0.80;;;;;;;24.03;39.48;102464.91;4195426;28;20040;-61
2022/09/30 08:18:10;;;;;;;1.42;1.00;;;;;;;24.03;39.16;102459.31;4181813;28;20090;-60
2022/09/30 08:20:12;;;;;;;0.90;0.83;;;;;;;24.04;39.35;102454.56;4191026;28;20480;-60
2022/09/30 08:22:15;;;;;;;1.95;0.95;;;;;;;24.02;38.93;102456.78;4184799;28;20090;-61
2022/09/30 08:24:16;;;;;;;1.65;0.80;;;;;;;24.02;39.08;102462.38;4196777;28;20032;-60
2022/09/30 08:26:18;;;;;;;1.55;0.90;;;;;;;24.02;39.27;102462.38;4196136;28;20177;-60
2022/09/30 08:28:19;;;;;;;1.45;1.10;;;;;;;24.03;39.20;102455.66;4181647;28;20037;-60
2022/09/30 08:30:20;;;;;;;1.83;1.20;;;;;;;24.01;39.09;102457.91;4184681;28;20041;-60
2022/09/30 08:32:24;;;;;;;2.22;1.20;;;;;;;23.78;39.06;102411.56;4191038;28;20431;-61
2022/09/30 08:34:26;;;;;;;2.13;1.20;;;;;;;23.98;39.18;102464.84;4191982;28;20036;-61
2022/09/30 08:36:27;;;;;;;1.58;1.00;;;;;;;23.97;38.80;102471.56;4197223;28;20036;-60
2022/09/30 08:38:29;;;;;;;1.30;1.13;;;;;;;23.91;39.26;102457.78;4197894;28;20098;-60
2022/09/30 08:40:33;;;;;;;1.48;1.38;;;;;;;23.96;39.01;102463.41;4196288;28;20078;-60
2022/09/30 08:42:49;;;;;;;2.38;1.40;;;;;;;23.94;39.11;102460.91;4197607;28;20066;-60
2022/09/30 08:44:50;;;;;;;1.85;1.52;;;;;;;23.80;38.81;102440.91;4196021;28;20098;-60
2022/09/30 08:47:19;;;;;;;2.58;1.65;;;;;;;23.92;39.17;102465.09;4189812;28;20525;-60
2022/09/30 08:49:43;;;;;;;3.10;1.90;;;;;;;23.92;39.22;102474.31;4184761;28;20125;-60
2022/09/30 08:51:47;;;;;;;1.98;1.77;;;;;;;23.96;39.02;102466.22;4192272;28;19916;-60
2022/09/30 08:53:49;;;;;;;3.25;2.13;;;;;;;23.94;39.28;102463.69;4180891;28;20087;-60
2022/09/30 08:55:56;;;;;;;2.83;1.75;;;;;;;23.94;39.04;102460.06;4181290;28;20090;-60
2022/09/30 08:58:01;;;;;;;2.17;1.75;;;;;;;23.82;39.15;102435.94;4195393;28;20036;-60
2022/09/30 09:00:09;;;;;;;1.85;1.65;;;;;;;23.94;39.16;102455.31;4196197;28;20048;-60
2022/09/30 09:02:26;;;;;;;4.15;1.70;;;;;;;23.65;39.06;102424.00;4189995;28;20086;-60
2022/09/30 09:04:30;;;;;;;1.75;1.60;;;;;;;23.86;39.31;102452.97;4196590;28;20040;-62
2022/09/30 09:07:09;;;;;;;2.20;1.70;;;;;;;23.93;39.21;102475.16;4186262;28;20040;-62
2022/09/30 09:09:22;;;;;;;2.10;1.90;;;;;;;23.97;39.31;102477.16;4191130;28;20036;-62
2022/09/30 09:11:46;;;;;;;2.00;1.80;;;;;;;23.94;38.89;102476.84;4196386;28;20048;-62
2022/09/30 09:14:19;;;;;;;2.35;1.88;;;;;;;23.82;38.95;102449.91;4196340;28;20534;-62
2022/09/30 09:16:29;;;;;;;2.85;1.80;;;;;;;23.95;39.08;102472.94;4193677;28;20094;-60
2022/09/30 09:19:09;;;;;;;2.33;1.60;;;;;;;23.88;39.23;102467.56;4190529;28;20083;-62
2022/09/30 09:21:21;;;;;;;1.90;1.70;;;;;;;23.94;39.35;102476.84;4164771;28;20048;-61
2022/09/30 09:23:23;;;;;;;1.83;1.40;;;;;;;23.95;39.12;102470.13;4186231;28;20024;-62
2022/09/30 09:25:36;;;;;;;1.70;1.52;;;;;;;23.73;39.57;102437.50;4197267;28;20044;-62
2022/09/30 09:27:59;;;;;;;1.50;1.40;;;;;;;23.92;39.46;102474.31;4195610;28;20040;-62
2022/09/30 09:30:13;;;;;;;2.22;1.70;;;;;;;23.92;39.28;102474.31;4197272;28;20048;-62
2022/09/30 09:32:17;;;;;;;2.20;1.83;;;;;;;23.92;38.92;102476.28;4197447;28;20048;-62
2022/09/30 09:34:18;;;;;;;2.22;1.70;;;;;;;23.89;39.16;102479.59;4197115;28;20040;-60
2022/09/30 09:36:52;;;;;;;1.65;1.55;;;;;;;23.84;39.48;102481.22;4197483;28;20070;-62
2022/09/30 09:39:23;;;;;;;1.40;1.27;;;;;;;23.86;39.03;102491.28;4196625;28;20090;-62
2022/09/30 09:41:52;;;;;;;2.10;1.50;;;;;;;23.80;39.27;102493.19;4180899;28;20447;-62
2022/09/30 09:44:23;;;;;;;2.33;1.67;;;;;;;23.88;39.49;102500.28;4181367;28;20041;-63
2022/09/30 09:46:44;;;;;;;2.15;1.75;;;;;;;23.81;39.27;102498.50;4180751;28;20546;-62
2022/09/30 09:48:45;;;;;;;1.70;1.30;;;;;;;23.89;39.09;102502.78;4180915;28;20045;-63
2022/09/30 09:51:05;;;;;;;1.85;1.67;;;;;;;23.88;39.22;102505.88;4180444;28;20497;-62
2022/09/30 09:53:15;;;;;;;2.17;1.90;;;;;;;23.87;39.11;102515.34;4180508;28;20110;-61
2022/09/30 09:55:20;;;;;;;2.28;1.75;;;;;;;23.87;39.02;102520.94;4180879;28;20427;-62
2022/09/30 09:57:30;;;;;;;3.15;1.70;;;;;;;23.83;39.27;102523.44;4180606;28;20037;-62